Time;durP1;ratioP1;P1;durP2;ratioP2;P2;SDS_P1;SDS_P2;PMS_P1;PMS_P2;Temp;Humidity;BMP_temperature;BMP_pressure;BME280_temperature;BME280_humidity;BME280_pressure;Samples;Min_cycle;Max_cycle;Signal;HPM_P1;HPM_P2
2023/09/01 00:00:43;;;;;;;2.92;2.45;;;;;;;17.32;81.42;95621.13;6272741;22;20565;-85
2023/09/01 00:03:09;;;;;;;3.53;2.63;;;;;;;17.34;81.34;95626.88;6272572;22;20176;-86
2023/09/01 00:05:37;;;;;;;3.25;2.45;;;;;;;17.32;81.41;95636.75;6272771;22;20176;-85
2023/09/01 00:08:06;;;;;;;3.05;2.30;;;;;;;17.40;81.08;95639.84;6272758;22;20196;-86
2023/09/01 00:10:35;;;;;;;3.53;2.55;;;;;;;17.44;81.85;95651.41;6273231;22;20298;-85
2023/09/01 00:13:03;;;;;;;3.30;2.80;;;;;;;17.40;83.23;95678.09;6273294;22;20176;-86
2023/09/01 00:15:30;;;;;;;4.38;2.92;;;;;;;17.38;84.26;95703.53;6272222;22;20176;-85
2023/09/01 00:17:56;;;;;;;3.15;2.90;;;;;;;17.38;84.84;95721.75;6271874;22;20176;-85
2023/09/01 00:20:23;;;;;;;4.05;2.95;;;;;;;17.35;85.43;95733.38;6272880;22;20249;-85
2023/09/01 00:22:49;;;;;;;3.17;2.72;;;;;;;17.31;87.16;95757.47;6272509;22;20171;-85
2023/09/01 00:25:16;;;;;;;4.15;3.30;;;;;;;17.20;88.32;95772.75;6272368;22;20176;-85
2023/09/01 00:27:42;;;;;;;3.60;3.10;;;;;;;17.13;89.54;95785.00;6272597;22;20196;-85
2023/09/01 00:30:11;;;;;;;3.70;3.20;;;;;;;17.10;90.76;95801.06;6272057;22;20250;-85
2023/09/01 00:32:38;;;;;;;3.90;3.25;;;;;;;16.98;92.75;95826.16;6272212;22;20229;-85
2023/09/01 00:35:05;;;;;;;3.40;3.05;;;;;;;16.80;94.25;95847.66;6272102;22;20187;-85
2023/09/01 00:37:31;;;;;;;4.25;3.72;;;;;;;16.78;95.14;95865.28;6272102;22;20193;-85
2023/09/01 00:39:58;;;;;;;3.67;3.15;;;;;;;16.76;96.40;95874.28;6272815;22;20249;-85
2023/09/01 00:42:24;;;;;;;3.50;3.20;;;;;;;16.82;96.12;95873.47;6272821;22;20180;-85
2023/09/01 00:44:51;;;;;;;4.20;3.05;;;;;;;16.82;95.94;95861.28;6272574;22;20173;-85
2023/09/01 00:47:19;;;;;;;3.75;3.22;;;;;;;16.75;96.59;95865.69;6272757;22;20658;-85
2023/09/01 00:49:45;;;;;;;6.13;3.50;;;;;;;16.77;95.95;95861.09;6272490;22;20665;-85
2023/09/01 00:52:12;;;;;;;3.50;3.20;;;;;;;16.79;96.53;95868.69;6271834;22;20494;-85
2023/09/01 00:54:38;;;;;;;4.05;3.03;;;;;;;16.80;97.03;95868.47;6271499;22;20651;-85
2023/09/01 00:57:05;;;;;;;3.40;3.10;;;;;;;16.81;98.88;95896.06;6272061;22;20184;-85
2023/09/01 00:59:32;;;;;;;4.00;3.60;;;;;;;16.81;98.19;95875.28;6272020;22;20200;-85
2023/09/01 01:01:59;;;;;;;3.72;3.40;;;;;;;16.80;99.95;95897.09;6272311;22;20187;-85
2023/09/01 01:04:27;;;;;;;3.40;3.10;;;;;;;16.83;99.24;95883.66;6272142;22;20179;-85
2023/09/01 01:07:06;;;;;;;4.15;3.75;;;;;;;16.82;99.11;95876.06;6271369;22;20230;-85
2023/09/01 01:09:41;;;;;;;3.80;3.50;;;;;;;16.81;99.75;95883.06;6272140;22;20207;-85
2023/09/01 01:12:15;;;;;;;4.15;3.72;;;;;;;16.82;100.00;95884.66;6271897;22;20160;-85
2023/09/01 01:14:47;;;;;;;4.85;3.58;;;;;;;16.79;100.00;95882.47;6271980;22;20157;-86
2023/09/01 01:17:18;;;;;;;4.32;4.03;;;;;;;16.72;100.00;95884.34;6272486;22;20587;-85
2023/09/01 01:19:51;;;;;;;4.50;4.03;;;;;;;16.74;100.00;95879.69;6272999;22;20192;-85
2023/09/01 01:22:27;;;;;;;4.38;3.97;;;;;;;16.71;100.00;95872.34;6272390;22;20157;-85
2023/09/01 01:24:55;;;;;;;4.45;4.05;;;;;;;16.72;100.00;95862.75;6272315;22;20287;-85
2023/09/01 01:27:21;;;;;;;4.38;3.97;;;;;;;16.73;100.00;95857.34;6272501;22;20230;-85
2023/09/01 01:29:48;;;;;;;4.55;4.15;;;;;;;16.77;100.00;95860.28;6271848;22;20200;-85
2023/09/01 01:32:15;;;;;;;4.85;4.40;;;;;;;16.71;100.00;95866.34;6271873;22;20188;-85
2023/09/01 01:34:48;;;;;;;4.47;4.13;;;;;;;16.75;100.00;95854.50;6271748;22;20204;-85
2023/09/01 01:37:21;;;;;;;4.35;3.95;;;;;;;16.82;100.00;95857.88;6271806;22;20168;-85
2023/09/01 01:39:51;;;;;;;4.85;4.28;;;;;;;16.80;100.00;95870.28;6271120;22;20203;-85
2023/09/01 01:42:19;;;;;;;4.40;4.00;;;;;;;16.85;100.00;95880.88;6272118;22;20172;-85
2023/09/01 01:44:49;;;;;;;4.50;4.10;;;;;;;16.86;100.00;95861.66;6271609;22;20183;-85
2023/09/01 01:47:16;;;;;;;4.85;4.45;;;;;;;16.83;100.00;95862.06;6272043;22;20172;-85
2023/09/01 01:49:43;;;;;;;4.63;4.22;;;;;;;16.80;100.00;95858.06;6271406;22;20196;-85
2023/09/01 01:52:09;;;;;;;4.30;4.00;;;;;;;16.78;100.00;95854.88;6271792;22;20176;-85
2023/09/01 01:54:35;;;;;;;6.65;4.72;;;;;;;16.68;100.00;95867.53;6271605;22;20183;-85
2023/09/01 01:57:02;;;;;;;5.32;4.43;;;;;;;16.66;100.00;95872.16;6272213;22;20183;-85
2023/09/01 01:59:30;;;;;;;5.28;4.78;;;;;;;16.68;100.00;95874.56;6272257;22;20250;-85
2023/09/01 02:01:58;;;;;;;5.15;4.65;;;;;;;16.64;100.00;95868.97;6272192;22;20172;-86
2023/09/01 02:04:24;;;;;;;5.65;4.57;;;;;;;16.63;100.00;95869.97;6271829;22;20249;-85
2023/09/01 02:06:51;;;;;;;5.15;4.50;;;;;;;16.59;100.00;95872.16;6270879;22;20175;-86
2023/09/01 02:09:17;;;;;;;5.05;4.50;;;;;;;16.54;100.00;95878.97;6271949;22;20200;-86
2023/09/01 02:11:44;;;;;;;5.07;4.57;;;;;;;16.44;100.00;95883.81;6271969;22;20194;-87
2023/09/01 02:14:11;;;;;;;5.55;5.05;;;;;;;16.41;100.00;95887.59;6276833;22;20196;-85
2023/09/01 02:16:39;;;;;;;5.50;4.80;;;;;;;16.26;100.00;95887.06;6272924;22;20176;-85
2023/09/01 02:19:08;;;;;;;4.93;4.53;;;;;;;16.31;100.00;95889.06;6270919;22;20679;-85
2023/09/01 02:21:34;;;;;;;5.10;4.60;;;;;;;16.32;100.00;95901.84;6271415;22;20184;-85
2023/09/01 02:24:01;;;;;;;6.03;4.47;;;;;;;16.28;100.00;95886.84;6276000;22;20180;-85
2023/09/01 02:26:27;;;;;;;6.15;4.30;;;;;;;16.25;100.00;95877.66;6281950;22;20179;-85
2023/09/01 02:28:54;;;;;;;5.03;4.28;;;;;;;16.23;100.00;95882.25;6270940;22;20705;-85
2023/09/01 02:31:21;;;;;;;4.38;4.07;;;;;;;16.27;100.00;95873.06;6272632;22;20183;-85
2023/09/01 02:33:49;;;;;;;4.90;4.28;;;;;;;16.24;100.00;95876.88;6271527;22;20176;-86
2023/09/01 02:36:27;;;;;;;6.45;4.22;;;;;;;16.19;100.00;95874.06;6271780;22;20484;-85
2023/09/01 02:38:54;;;;;;;5.13;4.60;;;;;;;16.21;100.00;95886.88;6271863;22;20159;-85
2023/09/01 02:41:21;;;;;;;5.35;3.92;;;;;;;16.21;100.00;95881.66;6272005;22;20172;-85
2023/09/01 02:43:48;;;;;;;4.90;4.50;;;;;;;16.19;100.00;95868.09;6270649;22;20184;-85
2023/09/01 02:46:14;;;;;;;4.50;4.10;;;;;;;16.26;100.00;95860.28;6271587;22;20180;-85
2023/09/01 02:48:41;;;;;;;4.57;4.20;;;;;;;16.22;100.00;95859.88;6271560;22;20196;-85
2023/09/01 02:51:09;;;;;;;4.65;4.25;;;;;;;16.25;100.00;95856.88;6271322;22;20200;-85
2023/09/01 02:53:37;;;;;;;4.97;4.03;;;;;;;16.24;100.00;95861.28;6271809;22;20179;-85
2023/09/01 02:56:04;;;;;;;4.25;3.83;;;;;;;16.28;100.00;95858.28;6271396;22;20176;-86
2023/09/01 02:58:30;;;;;;;5.30;4.32;;;;;;;16.27;100.00;95862.69;6270845;22;20175;-85
2023/09/01 03:00:57;;;;;;;5.80;4.78;;;;;;;16.32;100.00;95852.47;6271154;22;20192;-85
2023/09/01 03:03:24;;;;;;;4.78;4.38;;;;;;;16.21;100.00;95850.50;6271547;22;20184;-85
2023/09/01 03:05:52;;;;;;;5.15;4.07;;;;;;;16.24;100.00;95860.47;6272844;22;20183;-87
2023/09/01 03:08:20;;;;;;;4.43;3.78;;;;;;;16.29;100.00;95852.06;6275719;22;20191;-86
2023/09/01 03:10:47;;;;;;;5.20;4.30;;;;;;;16.33;100.00;95842.88;6271959;22;20196;-85
2023/09/01 03:13:14;;;;;;;4.00;3.70;;;;;;;16.34;100.00;95841.88;6271829;22;20377;-85
2023/09/01 03:15:40;;;;;;;4.43;4.03;;;;;;;16.34;100.00;95836.69;6270382;22;20172;-85
2023/09/01 03:18:07;;;;;;;4.32;4.03;;;;;;;16.32;100.00;95825.69;6269925;22;20203;-85
2023/09/01 03:20:34;;;;;;;6.13;4.07;;;;;;;16.36;100.00;95832.84;6270841;22;20668;-85
2023/09/01 03:23:00;;;;;;;4.88;4.05;;;;;;;16.38;100.00;95819.66;6271694;22;20226;-85
2023/09/01 03:25:28;;;;;;;4.18;3.85;;;;;;;16.37;100.00;95821.44;6271473;22;20172;-87
2023/09/01 03:27:54;;;;;;;4.13;3.70;;;;;;;16.32;100.00;95810.09;6271096;22;20172;-86
2023/09/01 03:30:21;;;;;;;4.65;3.95;;;;;;;16.30;100.00;95807.69;6271275;22;20203;-86
2023/09/01 03:32:47;;;;;;;4.35;3.95;;;;;;;16.26;100.00;95800.53;6271187;22;20180;-87
2023/09/01 03:35:14;;;;;;;4.00;3.50;;;;;;;16.22;100.00;95808.72;6274125;22;20180;-87
2023/09/01 03:37:40;;;;;;;4.35;3.95;;;;;;;16.21;100.00;95817.50;6272827;22;20199;-85
2023/09/01 03:40:09;;;;;;;4.85;3.83;;;;;;;16.15;100.00;95802.78;6271612;22;20505;-85
2023/09/01 03:42:37;;;;;;;4.70;3.60;;;;;;;16.18;100.00;95801.53;6271211;22;20176;-85
2023/09/01 03:45:04;;;;;;;3.78;3.47;;;;;;;16.29;100.00;95800.09;6271824;22;20180;-86
2023/09/01 03:47:30;;;;;;;5.05;3.63;;;;;;;16.33;100.00;95791.69;6270472;22;20184;-86
2023/09/01 03:49:57;;;;;;;3.92;3.53;;;;;;;16.37;100.00;95792.84;6273026;22;20200;-85
2023/09/01 03:52:23;;;;;;;3.97;3.58;;;;;;;16.36;100.00;95798.25;6275335;22;20199;-86
2023/09/01 03:54:50;;;;;;;3.53;3.22;;;;;;;16.37;100.00;95811.06;6274287;22;20226;-87
2023/09/01 03:57:16;;;;;;;4.10;3.70;;;;;;;16.38;100.00;95802.25;6274271;22;20187;-86
2023/09/01 03:59:44;;;;;;;3.78;3.45;;;;;;;16.41;100.00;95801.03;6273898;22;20188;-85
2023/09/01 04:02:11;;;;;;;3.50;3.20;;;;;;;16.48;100.00;95786.22;6273084;22;20179;-86
2023/09/01 04:04:38;;;;;;;5.25;3.53;;;;;;;16.54;100.00;95782.81;6271558;22;20176;-86
2023/09/01 04:07:06;;;;;;;4.80;3.35;;;;;;;16.54;100.00;95778.41;6272377;22;20176;-87
2023/09/01 04:09:32;;;;;;;3.60;3.13;;;;;;;16.53;100.00;95774.22;6272390;22;20200;-87
2023/09/01 04:11:58;;;;;;;3.42;3.10;;;;;;;16.55;100.00;95774.78;6272014;22;20184;-85
2023/09/01 04:14:25;;;;;;;3.63;3.33;;;;;;;16.57;100.00;95772.75;6272659;22;20179;-86
2023/09/01 04:16:53;;;;;;;3.00;2.80;;;;;;;16.60;100.00;95771.56;6273842;22;20184;-85
2023/09/01 04:19:19;;;;;;;3.53;3.20;;;;;;;16.65;100.00;95763.16;6269115;22;20192;-85
2023/09/01 04:21:46;;;;;;;3.10;2.85;;;;;;;16.70;100.00;95768.53;6271731;22;20187;-85
2023/09/01 04:24:12;;;;;;;3.53;2.85;;;;;;;16.71;100.00;95763.13;6271681;22;20179;-86
2023/09/01 04:26:38;;;;;;;3.13;2.88;;;;;;;16.74;99.99;95759.31;6271916;22;20176;-84
2023/09/01 04:29:06;;;;;;;3.38;3.08;;;;;;;16.79;99.83;95762.06;6272602;22;20196;-85
2023/09/01 04:31:33;;;;;;;3.40;3.10;;;;;;;16.81;99.57;95758.25;6273953;22;20812;-86
2023/09/01 04:34:00;;;;;;;3.17;2.88;;;;;;;16.84;99.74;95765.63;6273027;22;20543;-87
2023/09/01 04:36:27;;;;;;;3.40;3.03;;;;;;;16.82;99.76;95767.66;6273408;22;20173;-85
2023/09/01 04:38:54;;;;;;;4.57;3.20;;;;;;;16.82;100.00;95769.44;6273889;22;20183;-86
2023/09/01 04:41:20;;;;;;;3.10;2.90;;;;;;;16.79;100.00;95768.06;6274192;22;20474;-86
2023/09/01 04:43:47;;;;;;;5.00;3.10;;;;;;;16.82;100.00;95766.84;6274566;22;20180;-87
2023/09/01 04:46:13;;;;;;;4.40;3.30;;;;;;;16.79;100.00;95778.47;6274754;22;20225;-87
2023/09/01 04:48:41;;;;;;;3.33;3.03;;;;;;;16.87;100.00;95777.44;6274830;22;20177;-85
2023/09/01 04:51:09;;;;;;;3.95;3.08;;;;;;;16.83;100.00;95786.66;6273451;22;20716;-86
2023/09/01 04:53:37;;;;;;;3.28;2.97;;;;;;;16.87;100.00;95790.44;6274966;22;20176;-86
2023/09/01 04:56:03;;;;;;;4.25;3.22;;;;;;;16.90;100.00;95779.59;6273730;22;20176;-86
2023/09/01 04:58:30;;;;;;;4.47;2.97;;;;;;;16.94;100.00;95778.16;6275669;22;20674;-86
2023/09/01 05:00:56;;;;;;;3.25;2.80;;;;;;;16.95;100.00;95773.75;6275164;22;20192;-85
2023/09/01 05:03:23;;;;;;;3.72;3.13;;;;;;;17.02;99.60;95761.50;6274131;22;20173;-86
2023/09/01 05:05:50;;;;;;;2.85;2.65;;;;;;;17.04;99.44;95764.69;6273862;22;20258;-86
2023/09/01 05:08:18;;;;;;;2.92;2.72;;;;;;;17.06;99.41;95762.69;6273500;22;20177;-86
2023/09/01 05:10:45;;;;;;;2.80;2.60;;;;;;;17.09;99.37;95767.47;6272980;22;20200;-86
2023/09/01 05:13:12;;;;;;;5.57;3.22;;;;;;;17.10;99.35;95771.66;6273719;22;20172;-86
2023/09/01 05:15:38;;;;;;;2.85;2.63;;;;;;;17.02;99.36;95780.50;6273473;22;20172;-86
2023/09/01 05:18:05;;;;;;;2.70;2.50;;;;;;;17.07;99.78;95772.88;6273806;22;20176;-85
2023/09/01 05:20:31;;;;;;;2.78;2.58;;;;;;;17.10;100.00;95780.25;6273743;22;20299;-86
2023/09/01 05:22:59;;;;;;;3.97;3.13;;;;;;;17.12;99.67;95780.06;6273306;22;20230;-87
2023/09/01 05:25:26;;;;;;;2.78;2.53;;;;;;;17.18;99.61;95782.59;6273245;22;20233;-86
2023/09/01 05:27:53;;;;;;;2.72;2.42;;;;;;;17.17;99.45;95785.41;6274035;22;20184;-87
2023/09/01 05:30:20;;;;;;;2.97;2.75;;;;;;;17.17;99.09;95780.19;6273918;22;20540;-88
2023/09/01 05:32:46;;;;;;;4.28;2.88;;;;;;;17.21;99.22;95776.97;6273920;22;20176;-87
2023/09/01 05:35:13;;;;;;;6.82;6.13;;;;;;;17.27;99.31;95783.13;6274278;22;20180;-86
2023/09/01 05:37:39;;;;;;;16.85;15.05;;;;;;;17.37;98.76;95772.22;6273731;22;20180;-87
2023/09/01 05:40:08;;;;;;;6.47;5.60;;;;;;;17.41;98.38;95773.38;6272327;22;20199;-85
2023/09/01 05:42:40;;;;;;;4.20;3.15;;;;;;;17.43;97.50;95763.56;6274878;22;20248;-86
2023/09/01 05:45:07;;;;;;;3.97;3.00;;;;;;;17.45;97.06;95759.72;6274790;22;20263;-86
2023/09/01 05:47:34;;;;;;;2.95;2.65;;;;;;;17.52;97.22;95757.84;6274632;22;20172;-86
2023/09/01 05:50:00;;;;;;;3.38;2.90;;;;;;;17.53;97.99;95769.06;6274049;22;20203;-87
2023/09/01 05:52:26;;;;;;;3.33;2.83;;;;;;;17.51;98.48;95777.09;6273659;22;20176;-86
2023/09/01 05:54:53;;;;;;;2.72;2.53;;;;;;;17.55;96.87;95764.44;6274607;22;20173;-87
2023/09/01 05:57:20;;;;;;;3.08;2.80;;;;;;;17.60;96.73;95762.78;6274185;22;20230;-86
2023/09/01 05:59:48;;;;;;;2.97;2.67;;;;;;;17.66;96.59;95760.38;6276147;22;20196;-88
2023/09/01 06:02:14;;;;;;;3.30;3.00;;;;;;;17.62;97.33;95775.59;6274688;22;20180;-88
2023/09/01 06:04:40;;;;;;;3.95;2.60;;;;;;;17.72;96.57;95772.50;6274783;22;20176;-86
2023/09/01 06:07:08;;;;;;;2.50;2.30;;;;;;;17.74;95.93;95768.69;6274948;22;20176;-87
2023/09/01 06:09:35;;;;;;;3.35;2.45;;;;;;;17.75;95.30;95759.06;6274481;22;20200;-87
2023/09/01 06:12:01;;;;;;;2.20;2.00;;;;;;;17.85;94.53;95757.56;6273581;22;20183;-86
2023/09/01 06:14:31;;;;;;;4.95;2.63;;;;;;;17.97;94.28;95757.63;6272989;22;20552;-87
2023/09/01 06:16:59;;;;;;;3.28;2.05;;;;;;;18.08;93.87;95743.06;6271705;22;20183;-87
2023/09/01 06:19:27;;;;;;;2.40;2.20;;;;;;;18.09;92.43;95729.03;6272722;22;20192;-86
2023/09/01 06:21:54;;;;;;;3.03;2.13;;;;;;;18.08;91.38;95710.00;6272725;22;20183;-86
2023/09/01 06:24:20;;;;;;;2.88;2.47;;;;;;;18.09;91.99;95726.44;6272576;22;20176;-87
2023/09/01 06:26:50;;;;;;;2.55;2.35;;;;;;;18.04;92.17;95729.69;6272771;22;20176;-87
2023/09/01 06:29:16;;;;;;;3.38;2.20;;;;;;;18.16;91.46;95732.34;6272733;22;20208;-87
2023/09/01 06:31:42;;;;;;;3.28;2.25;;;;;;;18.20;90.20;95713.44;6272364;22;20177;-87
2023/09/01 06:34:12;;;;;;;3.45;2.10;;;;;;;18.25;89.78;95700.53;6272491;22;20175;-85
2023/09/01 06:36:41;;;;;;;2.65;2.13;;;;;;;18.32;89.20;95690.00;6272920;22;20176;-87
2023/09/01 06:39:09;;;;;;;2.30;2.10;;;;;;;18.44;88.20;95680.44;6272826;22;20558;-86
2023/09/01 06:41:36;;;;;;;1.90;1.80;;;;;;;18.50;87.44;95668.28;6273260;22;20228;-87
2023/09/01 06:44:04;;;;;;;2.20;2.00;;;;;;;18.49;86.31;95646.63;6272947;22;20511;-87
2023/09/01 06:46:30;;;;;;;3.05;1.52;;;;;;;18.49;84.33;95615.34;6272493;22;20176;-86
2023/09/01 06:48:58;;;;;;;2.20;1.70;;;;;;;18.58;85.76;95639.28;6273590;22;20175;-85
2023/09/01 06:51:28;;;;;;;2.10;1.75;;;;;;;18.60;85.00;95632.88;6272910;22;20766;-87
2023/09/01 06:53:58;;;;;;;1.98;1.80;;;;;;;18.61;84.13;95620.63;6273339;22;20176;-87
2023/09/01 06:56:24;;;;;;;2.20;1.77;;;;;;;18.59;82.98;95607.00;6272665;22;20176;-87
2023/09/01 06:58:55;;;;;;;2.17;1.48;;;;;;;18.58;82.58;95595.75;6272203;22;20160;-87
2023/09/01 07:01:21;;;;;;;2.60;1.80;;;;;;;18.67;81.88;95582.38;6271658;22;20188;-88
2023/09/01 07:03:50;;;;;;;2.75;2.03;;;;;;;18.71;81.05;95563.44;6272420;22;20176;-87
2023/09/01 07:06:17;;;;;;;4.43;1.70;;;;;;;18.78;81.00;95561.53;6272303;22;20179;-85
2023/09/01 07:08:45;;;;;;;1.60;1.50;;;;;;;18.71;81.05;95576.50;6272078;22;20187;-87
2023/09/01 07:11:14;;;;;;;2.88;1.70;;;;;;;18.82;80.56;95567.88;6272485;22;20196;-86
2023/09/01 07:13:40;;;;;;;1.73;1.63;;;;;;;18.96;81.07;95581.47;6272386;22;20226;-87
2023/09/01 07:16:09;;;;;;;1.67;1.58;;;;;;;19.09;78.54;95529.03;6273085;22;20176;-88
2023/09/01 07:18:35;;;;;;;2.10;1.52;;;;;;;19.12;78.26;95519.94;6273020;22;20168;-85
2023/09/01 07:21:02;;;;;;;2.00;1.80;;;;;;;19.35;77.11;95506.03;6272958;22;20196;-87
2023/09/01 07:23:29;;;;;;;3.63;1.60;;;;;;;19.63;74.78;95444.16;6272745;22;20172;-83
2023/09/01 07:25:57;;;;;;;2.13;1.60;;;;;;;19.76;74.46;95439.66;6272468;22;20176;-86
2023/09/01 07:28:23;;;;;;;2.47;2.28;;;;;;;19.88;74.73;95445.59;6272241;22;20278;-86
2023/09/01 07:30:50;;;;;;;1.63;1.52;;;;;;;19.79;73.70;95421.69;6272557;22;20196;-86
2023/09/01 07:33:17;;;;;;;3.03;1.70;;;;;;;19.64;71.97;95379.63;6272079;22;20172;-85
2023/09/01 07:35:47;;;;;;;1.75;1.65;;;;;;;19.57;73.08;95405.94;6272349;22;20176;-87
2023/09/01 07:38:14;;;;;;;2.05;1.52;;;;;;;19.69;74.50;95446.84;6272668;22;20176;-86
2023/09/01 07:40:40;;;;;;;2.22;1.70;;;;;;;19.77;73.72;95431.59;6272508;22;20188;-86
2023/09/01 07:43:08;;;;;;;2.85;1.80;;;;;;;19.85;73.79;95439.00;6272263;22;20198;-82
2023/09/01 07:45:35;;;;;;;2.05;1.85;;;;;;;20.12;72.39;95415.66;6273028;22;20172;-88
2023/09/01 07:48:02;;;;;;;1.98;1.65;;;;;;;20.63;70.79;95377.09;6273237;22;20229;-86
2023/09/01 07:50:30;;;;;;;1.60;1.50;;;;;;;20.63;69.18;95314.31;6271704;22;20196;-87
2023/09/01 07:52:56;;;;;;;2.55;1.60;;;;;;;20.53;69.25;95309.78;6272945;22;20176;-86
2023/09/01 07:55:23;;;;;;;1.90;1.70;;;;;;;20.31;69.98;95335.91;6273124;22;20176;-87
2023/09/01 07:57:51;;;;;;;2.13;1.58;;;;;;;20.32;71.35;95378.53;6271456;22;20241;-87
2023/09/01 08:00:19;;;;;;;2.95;1.77;;;;;;;20.29;71.59;95392.88;6273022;22;20188;-86
2023/09/01 08:02:48;;;;;;;1.92;1.67;;;;;;;20.16;70.67;95366.28;6272903;22;20176;-88
2023/09/01 08:05:14;;;;;;;1.70;1.60;;;;;;;20.16;71.80;95397.66;6274264;22;20180;-87
2023/09/01 08:07:41;;;;;;;2.55;1.50;;;;;;;20.15;71.96;95406.53;6274042;22;20185;-87
2023/09/01 08:10:10;;;;;;;3.97;1.52;;;;;;;20.16;73.02;95436.88;6273594;22;20195;-87
2023/09/01 08:12:37;;;;;;;3.63;1.70;;;;;;;20.14;73.07;95434.50;6273283;22;20180;-87
2023/09/01 08:15:03;;;;;;;1.88;1.63;;;;;;;20.44;72.04;95422.88;6273486;22;20176;-86
2023/09/01 08:17:35;;;;;;;2.72;1.50;;;;;;;20.78;71.50;95406.06;6273850;22;20175;-87
2023/09/01 08:20:03;;;;;;;5.47;2.65;;;;;;;20.92;71.50;95407.28;6274410;22;20199;-87
2023/09/01 08:22:32;;;;;;;2.28;2.00;;;;;;;20.92;69.73;95370.63;6274035;22;20176;-87
2023/09/01 08:24:58;;;;;;;1.70;1.60;;;;;;;21.02;69.16;95339.31;6274242;22;20259;-87
2023/09/01 08:27:28;;;;;;;2.33;1.60;;;;;;;21.26;67.35;95286.66;6273302;22;20184;-88
2023/09/01 08:29:55;;;;;;;1.60;1.50;;;;;;;21.67;66.58;95262.31;6274058;22;20223;-87
2023/09/01 08:32:24;;;;;;;3.05;1.60;;;;;;;21.71;64.92;95202.31;6273783;22;20639;-87
2023/09/01 08:34:51;;;;;;;2.00;1.50;;;;;;;21.95;62.98;95129.25;6273459;22;20183;-87
2023/09/01 08:37:19;;;;;;;1.50;1.40;;;;;;;22.03;62.29;95100.75;6273174;22;20176;-86
2023/09/01 08:39:46;;;;;;;1.65;1.50;;;;;;;22.09;60.96;95058.81;6273419;22;20200;-86
2023/09/01 08:42:16;;;;;;;2.13;1.38;;;;;;;22.13;59.47;94984.56;6273995;22;20168;-85
2023/09/01 08:44:43;;;;;;;1.58;1.35;;;;;;;22.37;58.64;94969.88;6275492;22;20211;-86
2023/09/01 08:47:10;;;;;;;1.90;1.52;;;;;;;22.51;57.40;94914.25;6274018;22;20175;-84
2023/09/01 08:49:37;;;;;;;1.40;1.30;;;;;;;22.82;56.68;94893.94;6271641;22;20930;-84
2023/09/01 08:52:06;;;;;;;2.80;1.40;;;;;;;22.98;56.14;94871.78;6272844;22;20191;-83
2023/09/01 08:54:34;;;;;;;2.50;1.42;;;;;;;22.85;55.45;94806.78;6273696;22;20183;-82
2023/09/01 08:57:00;;;;;;;2.40;1.63;;;;;;;23.18;56.13;94855.91;6272614;22;20204;-83
2023/09/01 08:59:29;;;;;;;1.50;1.30;;;;;;;23.46;53.79;94765.06;6273854;22;20526;-84
2023/09/01 09:01:55;;;;;;;1.60;1.50;;;;;;;23.46;53.70;94732.75;6273856;22;20702;-84
2023/09/01 09:04:22;;;;;;;2.13;1.20;;;;;;;23.53;54.03;94739.25;6274072;22;20208;-85
2023/09/01 09:06:48;;;;;;;1.80;1.50;;;;;;;23.49;54.55;94767.13;6273604;22;20172;-83
2023/09/01 09:09:17;;;;;;;2.40;2.15;;;;;;;23.53;54.74;94807.59;6273261;22;20185;-86
2023/09/01 09:11:56;;;;;;;1.80;1.45;;;;;;;23.52;53.81;94758.72;6273349;22;20196;-86
2023/09/01 09:14:23;;;;;;;1.98;1.40;;;;;;;23.53;55.50;94833.88;6272901;22;20184;-86
2023/09/01 09:16:53;;;;;;;1.83;1.48;;;;;;;23.34;55.10;94825.84;6273178;22;20177;-87
2023/09/01 09:19:20;;;;;;;2.38;1.50;;;;;;;23.39;54.71;94799.53;6274316;22;20203;-87
2023/09/01 09:21:46;;;;;;;1.70;1.40;;;;;;;23.26;54.70;94794.16;6274747;22;20172;-87
2023/09/01 09:24:13;;;;;;;1.48;1.25;;;;;;;23.56;54.68;94791.28;6273735;22;20176;-86
2023/09/01 09:26:41;;;;;;;1.70;1.13;;;;;;;23.83;53.77;94766.31;6275834;22;20172;-86
2023/09/01 09:29:11;;;;;;;1.55;1.27;;;;;;;23.95;52.34;94695.69;6276097;22;20176;-87
2023/09/01 09:31:39;;;;;;;1.25;1.13;;;;;;;24.03;52.21;94680.09;6274276;22;20211;-87
2023/09/01 09:34:15;;;;;;;1.20;1.10;;;;;;;24.14;52.11;94675.47;6275502;22;20195;-86
2023/09/01 09:36:41;;;;;;;1.67;1.20;;;;;;;24.23;52.18;94673.00;6274049;22;20183;-86
2023/09/01 09:39:20;;;;;;;1.50;1.40;;;;;;;24.21;51.30;94633.03;6275359;22;20508;-87
2023/09/01 09:41:53;;;;;;;2.00;1.40;;;;;;;24.09;51.13;94623.69;6274565;22;20160;-87
2023/09/01 09:44:24;;;;;;;1.30;1.20;;;;;;;24.16;50.80;94607.56;6274944;22;20156;-87
2023/09/01 09:46:53;;;;;;;1.55;1.25;;;;;;;24.31;50.45;94596.84;6275111;22;20156;-87
2023/09/01 09:49:22;;;;;;;1.70;1.35;;;;;;;24.40;50.58;94599.63;6273718;22;20176;-87
2023/09/01 09:51:51;;;;;;;1.55;1.35;;;;;;;24.42;50.66;94605.38;6274116;22;20227;-86
2023/09/01 09:54:20;;;;;;;1.58;1.25;;;;;;;24.54;49.95;94570.72;6275693;22;20175;-86
2023/09/01 09:56:51;;;;;;;1.52;1.42;;;;;;;24.63;49.49;94542.66;6274951;22;20191;-86
2023/09/01 09:59:25;;;;;;;3.35;1.65;;;;;;;24.82;50.27;94595.25;6275129;22;20159;-87
2023/09/01 10:01:52;;;;;;;2.55;1.42;;;;;;;24.73;49.17;94539.84;6275182;22;20160;-87
2023/09/01 10:04:19;;;;;;;2.17;1.30;;;;;;;24.62;49.50;94528.72;6274705;22;20726;-87
2023/09/01 10:06:46;;;;;;;2.65;1.65;;;;;;;24.44;49.26;94527.69;6272658;22;20203;-86
2023/09/01 10:09:16;;;;;;;4.10;1.30;;;;;;;24.48;50.05;94550.81;6272836;22;20203;-87
2023/09/01 10:11:44;;;;;;;1.60;1.23;;;;;;;24.39;49.92;94577.00;6275370;22;20219;-87
2023/09/01 10:14:13;;;;;;;1.30;1.20;;;;;;;24.39;49.00;94516.50;6273354;22;20180;-87
2023/09/01 10:16:44;;;;;;;1.65;1.40;;;;;;;24.15;48.66;94498.16;6273444;22;20206;-87
2023/09/01 10:19:12;;;;;;;3.25;2.58;;;;;;;24.30;49.10;94540.03;6273587;22;20157;-87
2023/09/01 10:21:57;;;;;;;3.80;2.13;;;;;;;24.44;49.14;94548.75;6274907;22;20633;-87
2023/09/01 10:24:24;;;;;;;2.90;1.23;;;;;;;24.88;49.77;94584.34;6276503;22;20160;-86
2023/09/01 10:27:10;;;;;;;1.30;1.20;;;;;;;24.90;48.94;94521.63;6273908;22;20184;-87
2023/09/01 10:29:38;;;;;;;1.30;1.20;;;;;;;24.88;48.15;94479.00;6273485;22;20218;-87
2023/09/01 10:32:20;;;;;;;2.05;1.30;;;;;;;24.82;47.59;94468.88;6273508;22;20199;-88
2023/09/01 10:34:54;;;;;;;3.25;1.50;;;;;;;24.78;47.80;94466.81;6271832;22;20172;-86
2023/09/01 10:37:25;;;;;;;2.45;1.58;;;;;;;24.78;48.76;94529.22;6274492;22;20180;-87
2023/09/01 10:39:52;;;;;;;1.55;1.35;;;;;;;24.83;48.70;94529.13;6273912;22;20195;-87
2023/09/01 10:42:39;;;;;;;1.85;1.10;;;;;;;24.88;48.72;94542.19;6274014;22;20180;-87
2023/09/01 10:45:11;;;;;;;2.10;1.38;;;;;;;24.94;47.96;94485.78;6272423;22;20157;-88
2023/09/01 10:47:46;;;;;;;1.85;1.35;;;;;;;25.01;47.99;94501.19;6273336;22;20181;-86
2023/09/01 10:50:13;;;;;;;1.88;1.38;;;;;;;25.00;48.22;94499.63;6273254;22;20667;-86
2023/09/01 10:52:42;;;;;;;2.20;1.38;;;;;;;24.99;49.02;94530.44;6273276;22;20200;-87
2023/09/01 10:55:09;;;;;;;4.13;1.40;;;;;;;25.05;48.57;94513.47;6273374;22;20651;-86
2023/09/01 10:57:41;;;;;;;2.30;1.55;;;;;;;24.90;47.43;94466.31;6273182;22;20184;-86
2023/09/01 11:00:26;;;;;;;1.63;1.30;;;;;;;24.88;47.98;94481.63;6274032;22;20196;-87
2023/09/01 11:02:53;;;;;;;1.25;1.15;;;;;;;24.81;47.89;94477.84;6272468;22;20212;-87
2023/09/01 11:05:39;;;;;;;1.40;1.30;;;;;;;24.66;48.33;94476.25;6273696;22;20203;-87
2023/09/01 11:08:14;;;;;;;2.78;2.00;;;;;;;24.53;48.28;94503.34;6273370;22;20173;-86
2023/09/01 11:10:40;;;;;;;2.63;2.42;;;;;;;24.42;48.19;94489.59;6273535;22;20198;-86
2023/09/01 11:13:14;;;;;;;1.65;1.48;;;;;;;24.39;48.35;94496.22;6274051;22;20247;-86
2023/09/01 11:15:48;;;;;;;2.60;1.48;;;;;;;24.35;48.75;94512.88;6273337;22;20172;-86
2023/09/01 11:18:19;;;;;;;1.63;1.25;;;;;;;24.39;48.75;94532.28;6271551;22;20627;-87
2023/09/01 11:20:47;;;;;;;1.80;1.48;;;;;;;24.42;48.34;94508.81;6272202;22;20668;-86
2023/09/01 11:23:15;;;;;;;1.80;1.40;;;;;;;24.59;49.53;94558.25;6272039;22;20183;-87
2023/09/01 11:25:41;;;;;;;1.55;1.45;;;;;;;24.77;49.65;94591.66;6271602;22;20248;-86
2023/09/01 11:28:12;;;;;;;1.52;1.35;;;;;;;24.89;48.73;94554.28;6271262;22;20183;-86
2023/09/01 11:30:38;;;;;;;1.65;1.50;;;;;;;24.85;48.11;94502.50;6271373;22;20203;-86
2023/09/01 11:33:13;;;;;;;1.50;1.40;;;;;;;24.94;47.93;94484.97;6271217;22;20661;-86
2023/09/01 11:35:40;;;;;;;2.78;1.40;;;;;;;25.12;48.48;94536.78;6271046;22;20869;-86